Clifton Springs, New York
Current Conditions -  °F | °C
As of 2:53 AM on Friday 31 Oct 2014 (Local Time) from KPEO Reporting Station
Overcast Overcast  
Wind Chill: 38°   Ceiling: 3700
Heat Index: 41°   Visibility: 10mi
Dew Point: 37°   Wind: 5mph
Humidity: 86%   Direction: 190°S
Pressure: 30.01"   Gusts: NA
Location:  42.96°N, 77.14°W
Report Text: KPEO 310653Z AUTO 19004KT 10SM BKN037 OVC050 05/03 A3001 RMK AO2 SLP167 T00500028
Loading
Personal Weather Stations






























Interactive Weather Map
Tropical Storm Tracking
New forecast layout! Learn more

10-Day Weather Forecast

Advertisements
Track Severe Weather on mobile